LGKO/KGS METAR and TAF weather

Enter ICAO airport designator
Station Type Date Time Source
LGKO METAR 2019/06/27 07:50 UTC NOAA

LGKO 270750Z 01013KT 310V050 CAVOK 29/19 Q1009


Station Type Date Time Source
LGKO Decoded METAR 2019/06/27 07:50 UTC NOAA

Kos Airport , Greece (LGKO) 36-47N 027-04E
Jun 27, 2019 - 03:50 AM EDT / 2019.06.27 0750 UTC
Wind: from the N (010 degrees) at 15 MPH (13 KT) (direction variable):0
Visibility: greater than 7 mile(s):0
Temperature: 84 F (29 C)
Dew Point: 66 F (19 C)
Relative Humidity: 54%
Pressure (altimeter): 29.80 in. Hg (1009 hPa)
ob: LGKO 270750Z 01013KT 310V050 CAVOK 29/19 Q1009
cycle: 8

Station Type Date Time Source
LGKO TAF 2019/06/27 06:12 UTC NOAA

TAF LGKO 270500Z 2706/2806 33014KT 9999 FEW020

Example: see airport list